createdAt,value
2018-10-11T00:00:03.524Z,95836.47
2018-10-11T00:02:32.695Z,95824.28
2018-10-11T00:05:01.942Z,95826.53
2018-10-11T00:07:31.211Z,95829.21
2018-10-11T00:10:00.442Z,95824.06
2018-10-11T00:12:29.698Z,95824.73
2018-10-11T00:14:59.022Z,95827.47
2018-10-11T00:17:27.954Z,95826.81
2018-10-11T00:19:57.134Z,95833.61
2018-10-11T00:22:26.471Z,95826.83
2018-10-11T00:24:55.567Z,95835.92
2018-10-11T00:27:24.564Z,95820.53
2018-10-11T00:29:53.751Z,95820.16
2018-10-11T00:32:22.859Z,95818.54
2018-10-11T00:34:52.532Z,95827.60
2018-10-11T00:37:22.061Z,95820.47
2018-10-11T00:39:51.303Z,95825.84
2018-10-11T00:42:20.470Z,95822.61
2018-10-11T00:44:49.847Z,95817.97
2018-10-11T00:47:18.875Z,95818.64
2018-10-11T00:49:48.131Z,95813.79
2018-10-11T00:52:17.387Z,95821.14
2018-10-11T00:54:46.475Z,95822.75
2018-10-11T00:57:15.762Z,95822.30
2018-10-11T00:59:45.243Z,95824.22
2018-10-11T01:02:14.434Z,95829.81
2018-10-11T01:04:43.375Z,95822.74
2018-10-11T01:07:12.736Z,95822.42
2018-10-11T01:09:42.050Z,95828.59
2018-10-11T01:12:11.243Z,95822.91
2018-10-11T01:14:40.550Z,95820.76
2018-10-11T01:17:09.686Z,95823.59
2018-10-11T01:19:38.802Z,95830.56
2018-10-11T01:22:08.107Z,95824.31
2018-10-11T01:24:37.365Z,95826.47
2018-10-11T01:27:06.766Z,95826.84
2018-10-11T01:29:36.056Z,95828.11
2018-10-11T01:32:05.239Z,95828.53
2018-10-11T01:34:34.336Z,95826.47
2018-10-11T01:37:03.735Z,95825.62
2018-10-11T01:39:32.837Z,95825.38
2018-10-11T01:42:01.963Z,95821.86
2018-10-11T01:44:31.326Z,95825.72
2018-10-11T01:47:00.567Z,95822.92
2018-10-11T01:49:29.771Z,95816.50
2018-10-11T01:51:58.815Z,95814.27
2018-10-11T01:54:28.070Z,95819.32
2018-10-11T01:56:57.317Z,95827.45
2018-10-11T01:59:26.742Z,95826.69
2018-10-11T02:01:55.783Z,95826.88
2018-10-11T02:04:24.873Z,95822.86
2018-10-11T02:06:54.216Z,95817.48
2018-10-11T02:09:23.273Z,95827.47
2018-10-11T02:11:52.567Z,95822.54
2018-10-11T02:14:21.970Z,95823.73
2018-10-11T02:16:51.267Z,95825.69
2018-10-11T02:19:20.303Z,95830.71
2018-10-11T02:21:49.623Z,95824.23
2018-10-11T02:24:18.830Z,95832.45
2018-10-11T02:26:47.897Z,95830.98
2018-10-11T02:29:17.261Z,95829.20
2018-10-11T02:31:46.271Z,95830.98
2018-10-11T02:34:15.411Z,95828.25
2018-10-11T02:36:44.802Z,95826.97
2018-10-11T02:39:13.617Z,95828.60
2018-10-11T02:41:42.643Z,95837.50
2018-10-11T02:44:12.059Z,95838.78
2018-10-11T02:46:41.233Z,95836.13
2018-10-11T02:49:10.570Z,95843.66
2018-10-11T02:51:40.174Z,95834.08
2018-10-11T02:54:09.433Z,95830.66
2018-10-11T02:56:38.667Z,95824.23
2018-10-11T02:59:18.671Z,95826.73
2018-10-11T03:01:48.103Z,95829.29
2018-10-11T03:04:17.265Z,95827.23
2018-10-11T03:06:46.832Z,95814.84
2018-10-11T03:09:16.806Z,95820.48
2018-10-11T03:11:45.903Z,95822.09
2018-10-11T03:14:15.612Z,95817.31
2018-10-11T03:16:44.949Z,95808.50
2018-10-11T03:19:14.249Z,95810.23
2018-10-11T03:21:43.822Z,95811.15
2018-10-11T03:24:13.336Z,95813.20
2018-10-11T03:26:42.979Z,95808.00
2018-10-11T03:29:12.314Z,95805.92
2018-10-11T03:31:41.686Z,95816.20
2018-10-11T03:34:10.792Z,95810.64
2018-10-11T03:36:40.171Z,95809.61
2018-10-11T03:39:09.533Z,95811.23
2018-10-11T03:41:38.802Z,95816.52
2018-10-11T03:44:08.442Z,95818.22
2018-10-11T03:46:37.552Z,95824.37
2018-10-11T03:49:06.855Z,95826.10
2018-10-11T03:51:36.231Z,95818.75
2018-10-11T03:54:05.470Z,95818.25
2018-10-11T03:56:35.030Z,95819.17
2018-10-11T03:59:04.392Z,95815.25
2018-10-11T04:01:33.590Z,95810.97
2018-10-11T04:04:02.922Z,95808.59
2018-10-11T04:06:32.499Z,95804.63
2018-10-11T04:09:01.800Z,95815.75
2018-10-11T04:11:30.935Z,95818.91
2018-10-11T04:14:00.295Z,95809.78
2018-10-11T04:16:29.438Z,95804.73
2018-10-11T04:18:58.322Z,95805.32
2018-10-11T04:21:27.838Z,95810.02
2018-10-11T04:23:56.999Z,95810.70
2018-10-11T04:26:26.167Z,95812.92
2018-10-11T04:28:55.595Z,95812.09
2018-10-11T04:31:24.686Z,95812.91
2018-10-11T04:33:53.756Z,95807.71
2018-10-11T04:36:23.039Z,95810.78
2018-10-11T04:38:52.210Z,95811.47
2018-10-11T04:41:21.278Z,95811.47
2018-10-11T04:43:50.388Z,95807.13
2018-10-11T04:46:19.654Z,95809.28
2018-10-11T04:48:48.667Z,95809.96
2018-10-11T04:51:17.937Z,95815.14
2018-10-11T04:53:51.075Z,95814.42
2018-10-11T04:56:20.451Z,95812.16
2018-10-11T04:58:49.503Z,95816.59
2018-10-11T05:01:18.514Z,95814.30
2018-10-11T05:03:47.966Z,95810.23
2018-10-11T05:06:17.157Z,95810.78
2018-10-11T05:08:46.249Z,95814.10
2018-10-11T05:11:15.742Z,95810.14
2018-10-11T05:13:47.467Z,95813.58
2018-10-11T05:16:17.409Z,95808.66
2018-10-11T05:18:49.713Z,95809.94
2018-10-11T05:21:19.047Z,95810.45
2018-10-11T05:23:48.166Z,95806.84
2018-10-11T05:26:17.407Z,95811.38
2018-10-11T05:28:47.387Z,95814.70
2018-10-11T05:31:17.139Z,95808.59
2018-10-11T05:33:46.228Z,95813.02
2018-10-11T05:36:16.370Z,95818.48
2018-10-11T05:38:45.478Z,95823.86
2018-10-11T05:41:14.542Z,95824.53
2018-10-11T05:43:44.154Z,95833.69
2018-10-11T05:46:29.564Z,95833.63
2018-10-11T05:48:59.652Z,95835.57
2018-10-11T05:51:30.303Z,95835.44
2018-10-11T05:54:00.451Z,95838.18
2018-10-11T05:56:31.151Z,95832.33
2018-10-11T05:59:00.826Z,95832.21
2018-10-11T06:01:30.379Z,95838.00
2018-10-11T06:03:59.515Z,95832.41
2018-10-11T06:06:28.699Z,95831.41
2018-10-11T06:09:02.091Z,95829.84
2018-10-11T06:11:31.421Z,95827.20
2018-10-11T06:14:00.738Z,95830.29
2018-10-11T06:16:30.371Z,95834.59
2018-10-11T06:18:59.722Z,95836.09
2018-10-11T06:21:28.746Z,95835.12
2018-10-11T06:23:57.939Z,95832.47
2018-10-11T06:26:27.247Z,95842.00
2018-10-11T06:28:56.619Z,95835.81
2018-10-11T06:31:25.823Z,95831.64
2018-10-11T06:33:54.996Z,95840.63
2018-10-11T06:36:24.868Z,95846.85
2018-10-11T06:38:54.657Z,95843.92
2018-10-11T06:41:23.754Z,95847.81
2018-10-11T06:43:52.821Z,95845.45
2018-10-11T06:46:22.075Z,95847.86
2018-10-11T06:48:51.289Z,95846.87
2018-10-11T06:51:20.631Z,95845.72
2018-10-11T06:53:50.889Z,95844.42
2018-10-11T06:56:20.303Z,95844.17
2018-10-11T06:58:49.487Z,95841.64
2018-10-11T07:01:18.989Z,95844.57
2018-10-11T07:03:48.081Z,95845.70
2018-10-11T07:06:17.429Z,95847.79
2018-10-11T07:08:46.711Z,95847.80
2018-10-11T07:11:16.263Z,95852.39
2018-10-11T07:13:45.953Z,95856.41
2018-10-11T07:16:15.440Z,95854.14
2018-10-11T07:18:44.551Z,95859.89
2018-10-11T07:21:14.071Z,95864.41
2018-10-11T07:23:43.239Z,95876.04
2018-10-11T07:26:12.439Z,95873.11
2018-10-11T07:28:42.077Z,95880.64
2018-10-11T07:31:11.235Z,95880.15
2018-10-11T07:33:40.450Z,95876.06
2018-10-11T07:36:10.063Z,95876.44
2018-10-11T07:38:39.337Z,95880.80
2018-10-11T07:41:08.623Z,95886.88
2018-10-11T07:43:37.733Z,95885.15
2018-10-11T07:46:07.091Z,95884.00
2018-10-11T07:48:36.202Z,95883.00
2018-10-11T07:51:05.235Z,95877.42
2018-10-11T07:53:34.462Z,95878.27
2018-10-11T07:56:03.795Z,95863.34
2018-10-11T07:58:33.246Z,95870.58
2018-10-11T08:01:02.487Z,95869.42
2018-10-11T08:03:31.781Z,95865.91
2018-10-11T08:06:01.075Z,95860.38
2018-10-11T08:08:30.116Z,95863.36
2018-10-11T08:10:58.936Z,95855.31
2018-10-11T08:13:28.838Z,95866.46
2018-10-11T08:15:57.968Z,95861.13
2018-10-11T08:18:27.139Z,95871.47
2018-10-11T08:20:56.539Z,95865.84
2018-10-11T08:23:25.556Z,95875.07
2018-10-11T08:25:54.869Z,95871.30
2018-10-11T08:28:23.859Z,95870.22
2018-10-11T08:30:53.023Z,95857.95
2018-10-11T08:33:22.855Z,95870.42
2018-10-11T08:35:52.212Z,95873.19
2018-10-11T08:38:21.490Z,95871.55
2018-10-11T08:40:50.493Z,95872.95
2018-10-11T08:43:20.073Z,95881.83
2018-10-11T08:45:49.342Z,95882.27
2018-10-11T08:48:18.464Z,95883.23
2018-10-11T08:50:47.909Z,95883.47
2018-10-11T08:53:17.056Z,95885.41
2018-10-11T08:55:46.089Z,95883.76
2018-10-11T08:58:15.492Z,95879.53
2018-10-11T09:00:44.675Z,95888.12
2018-10-11T09:03:13.876Z,95881.69
2018-10-11T09:05:43.339Z,95875.27
2018-10-11T09:08:12.390Z,95876.77
2018-10-11T09:10:41.815Z,95875.82
2018-10-11T09:13:10.725Z,95878.55
2018-10-11T09:15:39.579Z,95879.45
2018-10-11T09:18:08.489Z,95871.11
2018-10-11T09:20:37.756Z,95872.30
2018-10-11T09:23:06.712Z,95883.59
2018-10-11T09:25:35.943Z,95875.59
2018-10-11T09:28:04.992Z,95868.80
2018-10-11T09:30:34.052Z,95870.55
2018-10-11T09:33:03.179Z,95860.91
2018-10-11T09:35:32.754Z,95859.86
2018-10-11T09:38:01.888Z,95862.13
2018-10-11T09:40:31.034Z,95859.56
2018-10-11T09:43:00.501Z,95850.59
2018-10-11T09:45:29.643Z,95864.53
2018-10-11T09:47:58.526Z,95857.58
2018-10-11T09:50:27.781Z,95839.92
2018-10-11T09:52:57.036Z,95840.05
2018-10-11T09:55:26.235Z,95854.08
2018-10-11T09:57:55.648Z,95834.00
2018-10-11T10:00:29.967Z,95825.41
2018-10-11T10:02:59.366Z,95825.20
2018-10-11T10:05:28.454Z,95821.08
2018-10-11T10:07:57.754Z,95805.88
2018-10-11T10:10:27.212Z,95806.44
2018-10-11T10:12:56.330Z,95803.94
2018-10-11T10:15:25.430Z,95816.17
2018-10-11T10:17:54.857Z,95802.06
2018-10-11T10:20:24.032Z,95800.26
2018-10-11T10:22:53.236Z,95799.23
2018-10-11T10:25:22.535Z,95797.84
2018-10-11T10:27:51.591Z,95799.27
2018-10-11T10:30:26.148Z,95794.55
2018-10-11T10:32:55.302Z,95787.87
2018-10-11T10:35:24.622Z,95789.42
2018-10-11T10:37:53.919Z,95785.49
2018-10-11T10:40:22.990Z,95780.84
2018-10-11T10:42:52.280Z,95776.31
2018-10-11T10:45:21.737Z,95775.59
2018-10-11T10:47:53.025Z,95783.80
2018-10-11T10:50:22.568Z,95777.61
2018-10-11T10:52:52.394Z,95767.36
2018-10-11T10:55:21.548Z,95781.08
2018-10-11T10:57:50.897Z,95771.30
2018-10-11T11:00:20.147Z,95745.18
2018-10-11T11:02:49.464Z,95762.65
2018-10-11T11:05:18.810Z,95763.53
2018-10-11T11:07:47.847Z,95762.55
2018-10-11T11:10:17.055Z,95749.04
2018-10-11T11:12:46.470Z,95750.38
2018-10-11T11:15:15.781Z,95745.77
2018-10-11T11:17:44.993Z,95736.69
2018-10-11T11:20:14.400Z,95740.58
2018-10-11T11:22:43.583Z,95736.84
2018-10-11T11:25:12.759Z,95737.94
2018-10-11T11:27:42.079Z,95748.69
2018-10-11T11:30:11.408Z,95746.11
2018-10-11T11:32:40.570Z,95741.16
2018-10-11T11:35:10.136Z,95732.22
2018-10-11T11:37:39.553Z,95738.47
2018-10-11T11:40:08.888Z,95731.99
2018-10-11T11:42:38.274Z,95734.77
2018-10-11T11:45:07.390Z,95728.23
2018-10-11T11:47:36.618Z,95724.11
2018-10-11T11:50:06.114Z,95719.45
2018-10-11T11:52:35.147Z,95715.16
2018-10-11T11:55:04.240Z,95720.55
2018-10-11T11:57:33.731Z,95711.75
2018-10-11T12:00:02.861Z,95708.51
2018-10-11T12:02:32.150Z,95710.87
2018-10-11T12:05:01.805Z,95710.70
2018-10-11T12:07:30.901Z,95710.33
2018-10-11T12:10:00.022Z,95706.15
2018-10-11T12:13:04.745Z,95711.43
2018-10-11T12:15:34.571Z,95706.59
2018-10-11T12:18:04.602Z,95704.09
2018-10-11T12:20:35.075Z,95709.72
2018-10-11T12:23:05.364Z,95697.14
2018-10-11T12:25:34.868Z,95698.20
2018-10-11T12:28:04.229Z,95700.51
2018-10-11T12:30:33.671Z,95700.26
2018-10-11T12:33:02.745Z,95701.33
2018-10-11T12:35:32.763Z,95700.61
2018-10-11T12:38:02.103Z,95696.27
2018-10-11T12:40:31.155Z,95699.36
2018-10-11T12:43:00.478Z,95697.97
2018-10-11T12:45:29.527Z,95703.70
2018-10-11T12:47:58.623Z,95692.98
2018-10-11T12:50:27.911Z,95693.69
2018-10-11T12:52:57.173Z,95695.77
2018-10-11T12:55:26.422Z,95705.59
2018-10-11T12:57:55.742Z,95705.07
2018-10-11T13:00:25.065Z,95688.45
2018-10-11T13:02:54.295Z,95696.52
2018-10-11T13:05:23.407Z,95677.97
2018-10-11T13:07:52.522Z,95684.75
2018-10-11T13:10:21.621Z,95690.25
2018-10-11T13:12:50.760Z,95676.14
2018-10-11T13:15:19.922Z,95684.61
2018-10-11T13:17:49.056Z,95687.48
2018-10-11T13:20:18.653Z,95679.06
2018-10-11T13:22:47.873Z,95684.10
2018-10-11T13:25:17.130Z,95674.61
2018-10-11T13:27:46.471Z,95681.39
2018-10-11T13:30:15.647Z,95678.61
2018-10-11T13:32:44.795Z,95675.72
2018-10-11T13:35:14.170Z,95661.49
2018-10-11T13:37:43.336Z,95660.35
2018-10-11T13:40:12.564Z,95663.62
2018-10-11T13:42:41.978Z,95658.59
2018-10-11T13:45:11.271Z,95663.99
2018-10-11T13:47:43.707Z,95654.75
2018-10-11T13:50:09.606Z,95651.95
2018-10-11T13:52:38.554Z,95656.13
2018-10-11T13:55:12.148Z,95684.38
2018-10-11T13:57:37.166Z,95661.77
2018-10-11T14:00:06.623Z,95671.77
2018-10-11T14:02:35.848Z,95661.28
2018-10-11T14:05:05.630Z,95678.06
2018-10-11T14:07:34.962Z,95669.28
2018-10-11T14:10:04.263Z,95667.35
2018-10-11T14:12:33.563Z,95671.70
2018-10-11T14:15:02.644Z,95676.31
2018-10-11T14:17:31.772Z,95693.63
2018-10-11T14:20:00.822Z,95684.28
2018-10-11T14:22:30.047Z,95681.37
2018-10-11T14:24:59.088Z,95680.05
2018-10-11T14:27:28.377Z,95694.09
2018-10-11T14:29:57.474Z,95676.40
2018-10-11T14:32:26.758Z,95685.98
2018-10-11T14:34:56.280Z,95681.84
2018-10-11T14:37:25.271Z,95681.36
2018-10-11T14:39:54.352Z,95684.88
2018-10-11T14:42:23.974Z,95685.14
2018-10-11T14:44:53.288Z,95683.83
2018-10-11T14:47:22.490Z,95688.27
2018-10-11T14:49:52.063Z,95689.48
2018-10-11T14:52:21.130Z,95689.78
2018-10-11T14:54:50.245Z,95691.67
2018-10-11T14:57:19.822Z,95694.23
2018-10-11T14:59:49.526Z,95703.09
2018-10-11T15:02:18.772Z,95698.02
2018-10-11T15:04:48.091Z,95697.75
2018-10-11T15:07:17.414Z,95695.80
2018-10-11T15:09:46.707Z,95693.59
2018-10-11T15:12:16.084Z,95704.59
2018-10-11T15:14:45.310Z,95705.50
2018-10-11T15:17:14.515Z,95699.55
2018-10-11T15:19:44.008Z,95693.45
2018-10-11T15:22:13.021Z,95701.55
2018-10-11T15:24:42.119Z,95691.34
2018-10-11T15:27:11.387Z,95713.55
2018-10-11T15:29:40.666Z,95703.84
2018-10-11T15:32:09.722Z,95707.99
2018-10-11T15:34:39.161Z,95703.94
2018-10-11T15:37:08.230Z,95700.28
2018-10-11T15:39:37.327Z,95707.77
2018-10-11T15:42:07.212Z,95717.03
2018-10-11T15:44:36.220Z,95722.72
2018-10-11T15:47:06.893Z,95717.18
2018-10-11T15:49:36.378Z,95715.03
2018-10-11T15:52:05.681Z,95728.53
2018-10-11T15:54:34.935Z,95734.04
2018-10-11T15:57:04.435Z,95738.66
2018-10-11T15:59:33.636Z,95732.27
2018-10-11T16:02:02.892Z,95736.14
2018-10-11T16:04:32.431Z,95737.99
2018-10-11T16:07:01.451Z,95745.44
2018-10-11T16:09:30.560Z,95741.09
2018-10-11T16:11:59.901Z,95746.48
2018-10-11T16:14:28.968Z,95751.84
2018-10-11T16:16:58.258Z,95753.61
2018-10-11T16:19:27.783Z,95753.64
2018-10-11T16:21:57.047Z,95766.67
2018-10-11T16:24:26.322Z,95769.78
2018-10-11T16:26:55.914Z,95763.91
2018-10-11T16:29:25.144Z,95773.41
2018-10-11T16:31:54.291Z,95774.02
2018-10-11T16:34:23.586Z,95774.91
2018-10-11T16:36:52.815Z,95776.94
2018-10-11T16:39:21.863Z,95780.93
2018-10-11T16:41:51.303Z,95782.50
2018-10-11T16:44:20.751Z,95779.91
2018-10-11T16:46:49.935Z,95787.56
2018-10-11T16:49:19.424Z,95783.42
2018-10-11T16:51:48.507Z,95789.56
2018-10-11T16:54:19.085Z,95790.48
2018-10-11T16:56:48.591Z,95792.80
2018-10-11T16:59:17.646Z,95792.27
2018-10-11T17:01:46.873Z,95786.55
2018-10-11T17:04:16.106Z,95797.83
2018-10-11T17:06:45.355Z,95797.92
2018-10-11T17:09:14.543Z,95802.53
2018-10-11T17:11:43.966Z,95803.91
2018-10-11T17:14:13.242Z,95801.36
2018-10-11T17:16:42.260Z,95799.20
2018-10-11T17:19:12.128Z,95802.73
2018-10-11T17:21:41.316Z,95803.94
2018-10-11T17:24:10.423Z,95806.77
2018-10-11T17:26:40.091Z,95806.30
2018-10-11T17:29:09.335Z,95803.05
2018-10-11T17:31:38.419Z,95807.71
2018-10-11T17:34:08.015Z,95803.38
2018-10-11T17:36:37.065Z,95814.44
2018-10-11T17:39:09.143Z,95817.05
2018-10-11T17:41:38.559Z,95815.80
2018-10-11T17:44:08.380Z,95819.13
2018-10-11T17:46:38.923Z,95821.12
2018-10-11T17:49:08.093Z,95822.48
2018-10-11T17:51:38.895Z,95819.59
2018-10-11T17:54:08.410Z,95818.89
2018-10-11T17:56:38.341Z,95824.13
2018-10-11T17:59:07.539Z,95815.58
2018-10-11T18:01:36.961Z,95817.91
2018-10-11T18:04:06.031Z,95817.63
2018-10-11T18:06:35.554Z,95818.58
2018-10-11T18:09:05.627Z,95831.31
2018-10-11T18:11:34.751Z,95827.67
2018-10-11T18:14:04.048Z,95835.48
2018-10-11T18:16:33.515Z,95835.17
2018-10-11T18:19:02.647Z,95829.82
2018-10-11T18:21:31.881Z,95832.30
2018-10-11T18:24:01.307Z,95841.80
2018-10-11T18:26:30.314Z,95844.55
2018-10-11T18:28:59.811Z,95844.09
2018-10-11T18:31:29.192Z,95845.00
2018-10-11T18:33:58.284Z,95856.34
2018-10-11T18:36:27.377Z,95852.20
2018-10-11T18:38:56.542Z,95856.19
2018-10-11T18:41:26.170Z,95852.06
2018-10-11T18:43:55.279Z,95845.78
2018-10-11T18:46:24.627Z,95852.97
2018-10-11T18:48:53.661Z,95851.03
2018-10-11T18:51:22.820Z,95855.02
2018-10-11T18:53:52.146Z,95860.88
2018-10-11T18:56:21.300Z,95858.72
2018-10-11T18:58:50.546Z,95863.33
2018-10-11T19:01:20.130Z,95868.84
2018-10-11T19:03:49.168Z,95857.84
2018-10-11T19:06:18.374Z,95860.89
2018-10-11T19:08:47.682Z,95858.00
2018-10-11T19:11:16.569Z,95856.79
2018-10-11T19:13:45.739Z,95858.95
2018-10-11T19:16:15.087Z,95856.48
2018-10-11T19:18:44.167Z,95862.32
2018-10-11T19:21:13.498Z,95863.70
2018-10-11T19:23:42.907Z,95859.11
2018-10-11T19:26:12.179Z,95861.22
2018-10-11T19:28:41.328Z,95860.61
2018-10-11T19:31:10.836Z,95862.42
2018-10-11T19:33:39.871Z,95863.80
2018-10-11T19:36:09.227Z,95866.08
2018-10-11T19:38:38.742Z,95864.86
2018-10-11T19:41:07.978Z,95867.17
2018-10-11T19:43:37.084Z,95861.00
2018-10-11T19:46:06.698Z,95866.39
2018-10-11T19:48:35.990Z,95868.38
2018-10-11T19:51:05.124Z,95867.89
2018-10-11T19:53:34.534Z,95872.52
2018-10-11T19:56:03.622Z,95871.86
2018-10-11T19:58:32.632Z,95873.56
2018-10-11T20:01:02.040Z,95875.70
2018-10-11T20:03:31.188Z,95875.84
2018-10-11T20:06:00.253Z,95881.97
2018-10-11T20:08:29.749Z,95871.42
2018-10-11T20:10:58.795Z,95871.41
2018-10-11T20:13:28.083Z,95876.49
2018-10-11T20:15:57.607Z,95880.48
2018-10-11T20:18:26.761Z,95882.17
2018-10-11T20:20:55.784Z,95879.98
2018-10-11T20:23:25.219Z,95878.94
2018-10-11T20:25:54.380Z,95872.69
2018-10-11T20:28:23.390Z,95877.11
2018-10-11T20:30:52.542Z,95876.84
2018-10-11T20:33:21.872Z,95870.21
2018-10-11T20:35:51.047Z,95878.81
2018-10-11T20:38:20.426Z,95873.58
2018-10-11T20:40:49.640Z,95879.71
2018-10-11T20:43:18.791Z,95874.02
2018-10-11T20:45:47.944Z,95880.48
2018-10-11T20:48:17.183Z,95875.56
2018-10-11T20:50:46.478Z,95876.50
2018-10-11T20:53:15.418Z,95870.83
2018-10-11T20:55:44.676Z,95868.07
2018-10-11T20:58:13.959Z,95865.63
2018-10-11T21:00:43.302Z,95873.02
2018-10-11T21:03:12.552Z,95865.19
2018-10-11T21:05:41.727Z,95869.95
2018-10-11T21:08:11.099Z,95866.89
2018-10-11T21:10:40.178Z,95878.84
2018-10-11T21:13:09.292Z,95880.22
2018-10-11T21:15:38.839Z,95880.09
2018-10-11T21:18:07.970Z,95879.00
2018-10-11T21:20:37.155Z,95881.31
2018-10-11T21:23:06.515Z,95875.62
2018-10-11T21:25:35.642Z,95879.60
2018-10-11T21:28:04.797Z,95876.84
2018-10-11T21:30:34.187Z,95880.38
2018-10-11T21:33:03.376Z,95880.33
2018-10-11T21:35:32.587Z,95873.92
2018-10-11T21:38:01.767Z,95872.09
2018-10-11T21:40:30.777Z,95874.97
2018-10-11T21:43:00.074Z,95869.78
2018-10-11T21:45:29.427Z,95875.47
2018-10-11T21:47:58.635Z,95874.86
2018-10-11T21:50:28.702Z,95870.92
2018-10-11T21:52:58.159Z,95877.22
2018-10-11T21:55:27.260Z,95877.37
2018-10-11T21:57:56.355Z,95872.30
2018-10-11T22:00:30.804Z,95868.17
2018-10-11T22:02:59.950Z,95869.55
2018-10-11T22:05:29.113Z,95869.42
2018-10-11T22:07:58.319Z,95867.72
2018-10-11T22:10:27.088Z,95866.66
2018-10-11T22:12:56.102Z,95871.72
2018-10-11T22:15:25.815Z,95860.82
2018-10-11T22:17:55.095Z,95874.16
2018-10-11T22:20:24.070Z,95872.63
2018-10-11T22:22:53.872Z,95870.80
2018-10-11T22:25:23.339Z,95872.48
2018-10-11T22:27:52.741Z,95872.65
2018-10-11T22:30:22.727Z,95872.64
2018-10-11T22:32:51.608Z,95874.95
2018-10-11T22:35:20.540Z,95875.23
2018-10-11T22:37:51.316Z,95878.31
2018-10-11T22:40:20.864Z,95876.93
2018-10-11T22:42:50.485Z,95884.28
2018-10-11T22:45:20.636Z,95877.37
2018-10-11T22:47:50.603Z,95882.73
2018-10-11T22:50:19.519Z,95879.83
2018-10-11T22:52:48.560Z,95868.16
2018-10-11T22:55:17.407Z,95875.63
2018-10-11T22:57:46.337Z,95875.48
2018-10-11T23:00:15.331Z,95872.42
2018-10-11T23:02:44.559Z,95871.19
2018-10-11T23:05:13.599Z,95870.41
2018-10-11T23:07:42.691Z,95872.39
2018-10-11T23:10:11.579Z,95877.44
2018-10-11T23:12:40.839Z,95865.47
2018-10-11T23:15:09.914Z,95872.22
2018-10-11T23:17:38.859Z,95872.84
2018-10-11T23:20:07.971Z,95873.90
2018-10-11T23:22:37.411Z,95870.52
2018-10-11T23:25:06.771Z,95872.97
2018-10-11T23:27:35.762Z,95865.48
2018-10-11T23:30:05.292Z,95856.41
2018-10-11T23:32:34.334Z,95860.85
2018-10-11T23:35:03.874Z,95853.49
2018-10-11T23:37:33.335Z,95856.56
2018-10-11T23:40:02.444Z,95856.23
2018-10-11T23:42:31.212Z,95855.78
2018-10-11T23:45:00.410Z,95854.58
2018-10-11T23:47:29.075Z,95855.50
2018-10-11T23:49:58.091Z,95856.41
2018-10-11T23:52:27.970Z,95862.98
2018-10-11T23:54:57.023Z,95860.13
2018-10-11T23:57:26.206Z,95862.72
2018-10-11T23:59:55.822Z,95865.16
